sensor_id;sensor_type;location;lat;lon;timestamp;P1;durP1;ratioP1;P2;durP2;ratioP2
78205;SDS011;67480;48.920;12.880;2024-02-16T00:00:57;1.00;;;0.90;;
78205;SDS011;67480;48.920;12.880;2024-02-16T00:03:23;0.80;;;0.80;;
78205;SDS011;67480;48.920;12.880;2024-02-16T00:05:49;0.95;;;0.95;;
78205;SDS011;67480;48.920;12.880;2024-02-16T00:08:16;1.10;;;1.00;;
78205;SDS011;67480;48.920;12.880;2024-02-16T00:10:42;1.45;;;1.10;;
78205;SDS011;67480;48.920;12.880;2024-02-16T00:13:08;1.20;;;1.10;;
78205;SDS011;67480;48.920;12.880;2024-02-16T00:15:33;0.93;;;0.85;;
78205;SDS011;67480;48.920;12.880;2024-02-16T00:17:59;1.10;;;1.00;;
78205;SDS011;67480;48.920;12.880;2024-02-16T00:20:25;1.85;;;0.95;;
78205;SDS011;67480;48.920;12.880;2024-02-16T00:22:50;0.75;;;0.75;;
78205;SDS011;67480;48.920;12.880;2024-02-16T00:25:16;2.45;;;0.90;;
78205;SDS011;67480;48.920;12.880;2024-02-16T00:27:43;2.47;;;0.85;;
78205;SDS011;67480;48.920;12.880;2024-02-16T00:30:08;1.33;;;0.82;;
78205;SDS011;67480;48.920;12.880;2024-02-16T00:32:35;1.92;;;0.90;;
78205;SDS011;67480;48.920;12.880;2024-02-16T00:35:02;0.82;;;0.82;;
78205;SDS011;67480;48.920;12.880;2024-02-16T00:37:27;0.70;;;0.70;;
78205;SDS011;67480;48.920;12.880;2024-02-16T00:39:53;0.70;;;0.70;;
78205;SDS011;67480;48.920;12.880;2024-02-16T00:42:20;1.35;;;0.90;;
78205;SDS011;67480;48.920;12.880;2024-02-16T00:44:48;2.38;;;0.82;;
78205;SDS011;67480;48.920;12.880;2024-02-16T00:47:13;0.93;;;0.70;;
78205;SDS011;67480;48.920;12.880;2024-02-16T00:49:41;0.70;;;0.65;;
78205;SDS011;67480;48.920;12.880;2024-02-16T00:52:07;1.67;;;0.90;;
78205;SDS011;67480;48.920;12.880;2024-02-16T00:54:32;0.70;;;0.70;;
78205;SDS011;67480;48.920;12.880;2024-02-16T00:56:58;1.27;;;0.70;;
78205;SDS011;67480;48.920;12.880;2024-02-16T00:59:27;0.93;;;0.70;;
78205;SDS011;67480;48.920;12.880;2024-02-16T01:01:53;0.65;;;0.65;;
78205;SDS011;67480;48.920;12.880;2024-02-16T01:04:18;1.30;;;0.70;;
78205;SDS011;67480;48.920;12.880;2024-02-16T01:06:43;0.77;;;0.77;;
78205;SDS011;67480;48.920;12.880;2024-02-16T01:09:09;1.58;;;1.02;;
78205;SDS011;67480;48.920;12.880;2024-02-16T01:11:34;0.80;;;0.80;;
78205;SDS011;67480;48.920;12.880;2024-02-16T01:14:00;0.65;;;0.65;;
78205;SDS011;67480;48.920;12.880;2024-02-16T01:16:25;0.80;;;0.80;;
78205;SDS011;67480;48.920;12.880;2024-02-16T01:18:50;0.80;;;0.80;;
78205;SDS011;67480;48.920;12.880;2024-02-16T01:21:16;0.88;;;0.88;;
78205;SDS011;67480;48.920;12.880;2024-02-16T01:23:41;1.00;;;0.90;;
78205;SDS011;67480;48.920;12.880;2024-02-16T01:26:07;0.80;;;0.80;;
78205;SDS011;67480;48.920;12.880;2024-02-16T01:28:32;0.82;;;0.80;;
78205;SDS011;67480;48.920;12.880;2024-02-16T01:31:00;0.70;;;0.70;;
78205;SDS011;67480;48.920;12.880;2024-02-16T01:33:25;1.42;;;0.90;;
78205;SDS011;67480;48.920;12.880;2024-02-16T01:35:51;1.00;;;0.90;;
78205;SDS011;67480;48.920;12.880;2024-02-16T01:38:16;3.15;;;0.90;;
78205;SDS011;67480;48.920;12.880;2024-02-16T01:40:42;1.02;;;0.75;;
78205;SDS011;67480;48.920;12.880;2024-02-16T01:43:07;1.27;;;0.80;;
78205;SDS011;67480;48.920;12.880;2024-02-16T01:45:32;1.88;;;0.68;;
78205;SDS011;67480;48.920;12.880;2024-02-16T01:47:58;1.67;;;0.90;;
78205;SDS011;67480;48.920;12.880;2024-02-16T01:50:24;1.50;;;0.70;;
78205;SDS011;67480;48.920;12.880;2024-02-16T01:52:50;2.80;;;0.95;;
78205;SDS011;67480;48.920;12.880;2024-02-16T01:55:16;0.95;;;0.73;;
78205;SDS011;67480;48.920;12.880;2024-02-16T01:57:42;1.27;;;0.70;;
78205;SDS011;67480;48.920;12.880;2024-02-16T02:00:09;1.42;;;0.70;;
78205;SDS011;67480;48.920;12.880;2024-02-16T02:02:35;1.95;;;0.82;;
78205;SDS011;67480;48.920;12.880;2024-02-16T02:05:01;0.60;;;0.60;;
78205;SDS011;67480;48.920;12.880;2024-02-16T02:07:28;0.60;;;0.60;;
78205;SDS011;67480;48.920;12.880;2024-02-16T02:09:54;0.93;;;0.70;;
78205;SDS011;67480;48.920;12.880;2024-02-16T02:12:20;0.80;;;0.70;;
78205;SDS011;67480;48.920;12.880;2024-02-16T02:14:45;1.38;;;0.70;;
78205;SDS011;67480;48.920;12.880;2024-02-16T02:17:14;0.80;;;0.80;;
78205;SDS011;67480;48.920;12.880;2024-02-16T02:19:39;0.93;;;0.80;;
78205;SDS011;67480;48.920;12.880;2024-02-16T02:22:17;1.45;;;0.88;;
78205;SDS011;67480;48.920;12.880;2024-02-16T02:24:44;0.82;;;0.82;;
78205;SDS011;67480;48.920;12.880;2024-02-16T02:27:10;3.00;;;2.28;;
78205;SDS011;67480;48.920;12.880;2024-02-16T02:29:37;6.93;;;3.97;;
78205;SDS011;67480;48.920;12.880;2024-02-16T02:32:03;4.97;;;3.40;;
78205;SDS011;67480;48.920;12.880;2024-02-16T02:34:29;3.40;;;2.97;;
78205;SDS011;67480;48.920;12.880;2024-02-16T02:36:54;2.35;;;1.60;;
78205;SDS011;67480;48.920;12.880;2024-02-16T02:39:20;3.03;;;1.83;;
78205;SDS011;67480;48.920;12.880;2024-02-16T02:41:45;1.70;;;1.40;;
78205;SDS011;67480;48.920;12.880;2024-02-16T02:44:11;2.88;;;1.60;;
78205;SDS011;67480;48.920;12.880;2024-02-16T02:46:36;2.03;;;1.20;;
78205;SDS011;67480;48.920;12.880;2024-02-16T02:49:02;2.05;;;1.58;;
78205;SDS011;67480;48.920;12.880;2024-02-16T02:51:28;1.33;;;1.23;;
78205;SDS011;67480;48.920;12.880;2024-02-16T02:53:54;1.80;;;1.70;;
78205;SDS011;67480;48.920;12.880;2024-02-16T02:59:41;1.98;;;1.35;;
78205;SDS011;67480;48.920;12.880;2024-02-16T03:02:06;1.58;;;1.25;;
78205;SDS011;67480;48.920;12.880;2024-02-16T03:04:32;2.60;;;1.23;;
78205;SDS011;67480;48.920;12.880;2024-02-16T03:06:58;1.52;;;1.17;;
78205;SDS011;67480;48.920;12.880;2024-02-16T03:09:23;1.08;;;1.02;;
78205;SDS011;67480;48.920;12.880;2024-02-16T03:11:49;1.30;;;1.20;;
78205;SDS011;67480;48.920;12.880;2024-02-16T03:14:15;1.25;;;1.15;;
78205;SDS011;67480;48.920;12.880;2024-02-16T03:16:41;1.98;;;1.83;;
78205;SDS011;67480;48.920;12.880;2024-02-16T03:19:07;2.38;;;1.27;;
78205;SDS011;67480;48.920;12.880;2024-02-16T03:21:35;2.20;;;1.50;;
78205;SDS011;67480;48.920;12.880;2024-02-16T03:24:04;1.70;;;1.13;;
78205;SDS011;67480;48.920;12.880;2024-02-16T03:26:29;1.85;;;1.35;;
78205;SDS011;67480;48.920;12.880;2024-02-16T03:28:55;1.38;;;0.90;;
78205;SDS011;67480;48.920;12.880;2024-02-16T03:31:22;1.08;;;1.00;;
78205;SDS011;67480;48.920;12.880;2024-02-16T03:33:49;0.90;;;0.90;;
78205;SDS011;67480;48.920;12.880;2024-02-16T03:36:16;2.15;;;1.35;;
78205;SDS011;67480;48.920;12.880;2024-02-16T03:38:45;1.48;;;1.38;;
78205;SDS011;67480;48.920;12.880;2024-02-16T03:41:17;1.65;;;1.30;;
78205;SDS011;67480;48.920;12.880;2024-02-16T03:43:46;4.15;;;1.60;;
78205;SDS011;67480;48.920;12.880;2024-02-16T03:46:12;1.80;;;1.70;;
78205;SDS011;67480;48.920;12.880;2024-02-16T03:48:41;1.83;;;1.73;;
78205;SDS011;67480;48.920;12.880;2024-02-16T03:51:07;3.25;;;2.03;;
78205;SDS011;67480;48.920;12.880;2024-02-16T03:53:32;3.03;;;2.05;;
78205;SDS011;67480;48.920;12.880;2024-02-16T03:55:57;2.13;;;1.63;;
78205;SDS011;67480;48.920;12.880;2024-02-16T03:58:23;6.43;;;5.28;;
78205;SDS011;67480;48.920;12.880;2024-02-16T04:00:49;2.35;;;2.00;;
78205;SDS011;67480;48.920;12.880;2024-02-16T04:03:15;1.92;;;1.70;;
78205;SDS011;67480;48.920;12.880;2024-02-16T04:05:41;1.65;;;1.55;;
78205;SDS011;67480;48.920;12.880;2024-02-16T04:08:07;2.75;;;1.70;;
78205;SDS011;67480;48.920;12.880;2024-02-16T04:10:33;1.58;;;1.35;;
78205;SDS011;67480;48.920;12.880;2024-02-16T04:12:59;1.92;;;1.50;;
78205;SDS011;67480;48.920;12.880;2024-02-16T04:15:25;1.70;;;1.42;;
78205;SDS011;67480;48.920;12.880;2024-02-16T04:17:51;1.60;;;1.50;;
78205;SDS011;67480;48.920;12.880;2024-02-16T04:20:16;1.30;;;1.20;;
78205;SDS011;67480;48.920;12.880;2024-02-16T04:22:42;4.72;;;1.23;;
78205;SDS011;67480;48.920;12.880;2024-02-16T04:25:07;1.85;;;1.50;;
78205;SDS011;67480;48.920;12.880;2024-02-16T04:27:33;3.60;;;1.60;;
78205;SDS011;67480;48.920;12.880;2024-02-16T04:29:59;1.33;;;1.23;;
78205;SDS011;67480;48.920;12.880;2024-02-16T04:32:25;1.17;;;1.10;;
78205;SDS011;67480;48.920;12.880;2024-02-16T04:34:51;9.68;;;6.53;;
78205;SDS011;67480;48.920;12.880;2024-02-16T04:37:21;9.75;;;6.82;;
78205;SDS011;67480;48.920;12.880;2024-02-16T04:39:46;6.78;;;4.68;;
78205;SDS011;67480;48.920;12.880;2024-02-16T04:42:12;3.13;;;2.60;;
78205;SDS011;67480;48.920;12.880;2024-02-16T04:44:38;2.92;;;2.35;;
78205;SDS011;67480;48.920;12.880;2024-02-16T04:47:03;3.33;;;2.35;;
78205;SDS011;67480;48.920;12.880;2024-02-16T04:49:29;2.55;;;2.05;;
78205;SDS011;67480;48.920;12.880;2024-02-16T04:51:54;1.83;;;1.73;;
78205;SDS011;67480;48.920;12.880;2024-02-16T04:54:20;2.28;;;2.08;;
78205;SDS011;67480;48.920;12.880;2024-02-16T04:56:45;2.08;;;1.77;;
78205;SDS011;67480;48.920;12.880;2024-02-16T04:59:11;1.55;;;1.23;;
78205;SDS011;67480;48.920;12.880;2024-02-16T05:01:36;2.83;;;1.52;;
78205;SDS011;67480;48.920;12.880;2024-02-16T05:04:01;1.65;;;1.55;;
78205;SDS011;67480;48.920;12.880;2024-02-16T05:06:27;2.00;;;1.67;;
78205;SDS011;67480;48.920;12.880;2024-02-16T05:08:52;1.55;;;1.45;;
78205;SDS011;67480;48.920;12.880;2024-02-16T05:11:18;1.77;;;1.67;;
78205;SDS011;67480;48.920;12.880;2024-02-16T05:13:44;2.22;;;1.70;;
78205;SDS011;67480;48.920;12.880;2024-02-16T05:16:10;2.20;;;2.00;;
78205;SDS011;67480;48.920;12.880;2024-02-16T05:18:36;2.50;;;2.00;;
78205;SDS011;67480;48.920;12.880;2024-02-16T05:21:02;2.22;;;1.40;;
78205;SDS011;67480;48.920;12.880;2024-02-16T05:23:28;2.60;;;2.13;;
78205;SDS011;67480;48.920;12.880;2024-02-16T05:25:53;2.58;;;2.05;;
78205;SDS011;67480;48.920;12.880;2024-02-16T05:28:19;2.55;;;2.35;;
78205;SDS011;67480;48.920;12.880;2024-02-16T05:30:45;1.90;;;1.80;;
78205;SDS011;67480;48.920;12.880;2024-02-16T05:33:10;1.75;;;1.50;;
78205;SDS011;67480;48.920;12.880;2024-02-16T05:35:36;1.60;;;1.50;;
78205;SDS011;67480;48.920;12.880;2024-02-16T05:38:05;2.60;;;1.63;;
78205;SDS011;67480;48.920;12.880;2024-02-16T05:40:46;1.98;;;1.77;;
78205;SDS011;67480;48.920;12.880;2024-02-16T05:43:19;2.78;;;1.70;;
78205;SDS011;67480;48.920;12.880;2024-02-16T05:45:45;3.05;;;1.50;;
78205;SDS011;67480;48.920;12.880;2024-02-16T05:48:11;1.50;;;1.40;;
78205;SDS011;67480;48.920;12.880;2024-02-16T05:50:37;1.60;;;1.50;;
78205;SDS011;67480;48.920;12.880;2024-02-16T05:53:03;7.38;;;2.20;;
78205;SDS011;67480;48.920;12.880;2024-02-16T05:55:28;2.83;;;2.22;;
78205;SDS011;67480;48.920;12.880;2024-02-16T05:57:54;3.28;;;2.22;;
78205;SDS011;67480;48.920;12.880;2024-02-16T06:00:19;12.32;;;9.27;;
78205;SDS011;67480;48.920;12.880;2024-02-16T06:02:46;21.73;;;16.35;;
78205;SDS011;67480;48.920;12.880;2024-02-16T06:05:12;4.60;;;4.10;;
78205;SDS011;67480;48.920;12.880;2024-02-16T06:07:38;4.10;;;2.85;;
78205;SDS011;67480;48.920;12.880;2024-02-16T06:10:04;5.40;;;2.80;;
78205;SDS011;67480;48.920;12.880;2024-02-16T06:12:32;5.22;;;3.33;;
78205;SDS011;67480;48.920;12.880;2024-02-16T06:14:58;3.78;;;3.03;;
78205;SDS011;67480;48.920;12.880;2024-02-16T06:17:24;2.67;;;2.47;;
78205;SDS011;67480;48.920;12.880;2024-02-16T06:19:49;4.07;;;3.03;;
78205;SDS011;67480;48.920;12.880;2024-02-16T06:22:15;5.15;;;3.72;;
78205;SDS011;67480;48.920;12.880;2024-02-16T06:24:41;4.22;;;2.60;;
78205;SDS011;67480;48.920;12.880;2024-02-16T06:27:06;3.15;;;2.80;;
78205;SDS011;67480;48.920;12.880;2024-02-16T06:29:33;2.90;;;2.60;;
78205;SDS011;67480;48.920;12.880;2024-02-16T06:31:59;3.30;;;2.40;;
78205;SDS011;67480;48.920;12.880;2024-02-16T06:34:27;3.05;;;2.10;;
78205;SDS011;67480;48.920;12.880;2024-02-16T06:36:52;1.98;;;1.77;;
78205;SDS011;67480;48.920;12.880;2024-02-16T06:39:17;2.47;;;1.77;;
78205;SDS011;67480;48.920;12.880;2024-02-16T06:41:44;1.92;;;1.75;;
78205;SDS011;67480;48.920;12.880;2024-02-16T06:44:11;3.90;;;2.90;;
78205;SDS011;67480;48.920;12.880;2024-02-16T06:46:36;5.30;;;3.80;;
78205;SDS011;67480;48.920;12.880;2024-02-16T06:49:02;5.10;;;3.70;;
78205;SDS011;67480;48.920;12.880;2024-02-16T06:51:27;6.85;;;4.35;;
78205;SDS011;67480;48.920;12.880;2024-02-16T06:53:53;4.65;;;4.25;;
78205;SDS011;67480;48.920;12.880;2024-02-16T06:56:19;4.70;;;3.65;;
78205;SDS011;67480;48.920;12.880;2024-02-16T06:58:45;3.80;;;3.30;;
78205;SDS011;67480;48.920;12.880;2024-02-16T07:01:14;3.13;;;2.83;;
78205;SDS011;67480;48.920;12.880;2024-02-16T07:03:40;4.70;;;3.97;;
78205;SDS011;67480;48.920;12.880;2024-02-16T07:06:06;4.78;;;3.90;;
78205;SDS011;67480;48.920;12.880;2024-02-16T07:08:38;3.97;;;3.40;;
78205;SDS011;67480;48.920;12.880;2024-02-16T07:11:04;4.18;;;3.50;;
78205;SDS011;67480;48.920;12.880;2024-02-16T07:13:31;5.13;;;3.90;;
78205;SDS011;67480;48.920;12.880;2024-02-16T07:15:57;6.72;;;4.13;;
78205;SDS011;67480;48.920;12.880;2024-02-16T07:18:22;10.45;;;8.88;;
78205;SDS011;67480;48.920;12.880;2024-02-16T07:20:48;6.05;;;4.47;;
78205;SDS011;67480;48.920;12.880;2024-02-16T07:23:13;4.15;;;3.75;;
78205;SDS011;67480;48.920;12.880;2024-02-16T07:25:40;4.10;;;3.60;;
78205;SDS011;67480;48.920;12.880;2024-02-16T07:28:07;4.43;;;3.70;;
78205;SDS011;67480;48.920;12.880;2024-02-16T07:30:33;3.90;;;3.50;;
78205;SDS011;67480;48.920;12.880;2024-02-16T07:32:59;4.43;;;3.80;;
78205;SDS011;67480;48.920;12.880;2024-02-16T07:35:25;5.22;;;3.20;;
78205;SDS011;67480;48.920;12.880;2024-02-16T07:37:50;3.58;;;3.08;;
78205;SDS011;67480;48.920;12.880;2024-02-16T07:40:22;4.90;;;3.58;;
78205;SDS011;67480;48.920;12.880;2024-02-16T07:42:47;3.35;;;3.05;;
78205;SDS011;67480;48.920;12.880;2024-02-16T07:45:13;3.65;;;3.20;;
78205;SDS011;67480;48.920;12.880;2024-02-16T07:47:40;3.10;;;2.80;;
78205;SDS011;67480;48.920;12.880;2024-02-16T07:50:06;4.47;;;3.40;;
78205;SDS011;67480;48.920;12.880;2024-02-16T07:52:32;5.88;;;4.05;;
78205;SDS011;67480;48.920;12.880;2024-02-16T07:54:58;4.65;;;3.70;;
78205;SDS011;67480;48.920;12.880;2024-02-16T07:57:23;5.35;;;3.88;;
78205;SDS011;67480;48.920;12.880;2024-02-16T07:59:49;4.95;;;4.20;;
78205;SDS011;67480;48.920;12.880;2024-02-16T08:02:14;4.07;;;3.50;;
78205;SDS011;67480;48.920;12.880;2024-02-16T08:04:47;3.42;;;3.13;;
78205;SDS011;67480;48.920;12.880;2024-02-16T08:07:13;4.03;;;3.53;;
78205;SDS011;67480;48.920;12.880;2024-02-16T08:09:39;4.78;;;3.55;;
78205;SDS011;67480;48.920;12.880;2024-02-16T08:12:04;4.78;;;3.75;;
78205;SDS011;67480;48.920;12.880;2024-02-16T08:14:32;4.75;;;4.10;;
78205;SDS011;67480;48.920;12.880;2024-02-16T08:16:58;5.18;;;3.60;;
78205;SDS011;67480;48.920;12.880;2024-02-16T08:19:23;3.95;;;3.58;;
78205;SDS011;67480;48.920;12.880;2024-02-16T08:21:58;4.53;;;3.75;;
78205;SDS011;67480;48.920;12.880;2024-02-16T08:24:23;4.72;;;3.70;;
78205;SDS011;67480;48.920;12.880;2024-02-16T08:26:48;3.78;;;3.35;;
78205;SDS011;67480;48.920;12.880;2024-02-16T08:29:14;3.85;;;3.45;;
78205;SDS011;67480;48.920;12.880;2024-02-16T08:31:39;5.28;;;3.58;;
78205;SDS011;67480;48.920;12.880;2024-02-16T08:34:04;4.00;;;3.50;;
78205;SDS011;67480;48.920;12.880;2024-02-16T08:36:32;3.35;;;3.05;;
78205;SDS011;67480;48.920;12.880;2024-02-16T08:38:59;3.13;;;2.80;;
78205;SDS011;67480;48.920;12.880;2024-02-16T08:41:24;5.38;;;3.08;;
78205;SDS011;67480;48.920;12.880;2024-02-16T08:43:50;3.58;;;3.05;;
78205;SDS011;67480;48.920;12.880;2024-02-16T08:46:15;3.45;;;3.15;;
78205;SDS011;67480;48.920;12.880;2024-02-16T08:48:41;3.35;;;3.05;;
78205;SDS011;67480;48.920;12.880;2024-02-16T08:51:06;3.80;;;3.10;;
78205;SDS011;67480;48.920;12.880;2024-02-16T08:53:32;3.35;;;2.95;;
78205;SDS011;67480;48.920;12.880;2024-02-16T08:55:57;3.35;;;3.05;;
78205;SDS011;67480;48.920;12.880;2024-02-16T08:58:23;3.67;;;3.00;;
78205;SDS011;67480;48.920;12.880;2024-02-16T09:00:48;3.45;;;3.15;;
78205;SDS011;67480;48.920;12.880;2024-02-16T09:03:15;4.40;;;3.47;;
78205;SDS011;67480;48.920;12.880;2024-02-16T09:05:41;3.22;;;2.92;;
78205;SDS011;67480;48.920;12.880;2024-02-16T09:08:08;4.35;;;3.40;;
78205;SDS011;67480;48.920;12.880;2024-02-16T09:10:34;3.47;;;3.17;;
78205;SDS011;67480;48.920;12.880;2024-02-16T09:13:00;4.30;;;3.30;;
78205;SDS011;67480;48.920;12.880;2024-02-16T09:15:25;3.45;;;3.15;;
78205;SDS011;67480;48.920;12.880;2024-02-16T09:17:51;3.63;;;3.30;;
78205;SDS011;67480;48.920;12.880;2024-02-16T09:20:17;3.72;;;3.33;;
78205;SDS011;67480;48.920;12.880;2024-02-16T09:22:47;4.18;;;3.70;;
78205;SDS011;67480;48.920;12.880;2024-02-16T09:25:13;6.18;;;4.07;;
78205;SDS011;67480;48.920;12.880;2024-02-16T09:27:39;4.95;;;4.45;;
78205;SDS011;67480;48.920;12.880;2024-02-16T09:30:07;6.35;;;4.97;;
78205;SDS011;67480;48.920;12.880;2024-02-16T09:32:36;7.28;;;5.97;;
78205;SDS011;67480;48.920;12.880;2024-02-16T09:35:04;8.02;;;7.22;;
78205;SDS011;67480;48.920;12.880;2024-02-16T09:37:29;10.60;;;8.77;;
78205;SDS011;67480;48.920;12.880;2024-02-16T09:39:55;10.73;;;8.98;;
78205;SDS011;67480;48.920;12.880;2024-02-16T09:42:21;9.48;;;8.25;;
78205;SDS011;67480;48.920;12.880;2024-02-16T09:44:48;11.48;;;9.00;;
78205;SDS011;67480;48.920;12.880;2024-02-16T09:47:15;13.18;;;10.52;;
78205;SDS011;67480;48.920;12.880;2024-02-16T09:49:44;12.80;;;11.38;;
78205;SDS011;67480;48.920;12.880;2024-02-16T09:52:10;12.35;;;10.57;;
78205;SDS011;67480;48.920;12.880;2024-02-16T09:54:37;15.18;;;10.50;;
78205;SDS011;67480;48.920;12.880;2024-02-16T09:57:04;15.65;;;10.80;;
78205;SDS011;67480;48.920;12.880;2024-02-16T09:59:30;12.60;;;9.98;;
78205;SDS011;67480;48.920;12.880;2024-02-16T10:02:03;13.00;;;10.00;;
78205;SDS011;67480;48.920;12.880;2024-02-16T10:04:29;11.57;;;10.02;;
78205;SDS011;67480;48.920;12.880;2024-02-16T10:06:55;12.45;;;10.43;;
78205;SDS011;67480;48.920;12.880;2024-02-16T10:09:26;11.05;;;9.80;;
78205;SDS011;67480;48.920;12.880;2024-02-16T10:11:54;10.88;;;9.68;;
78205;SDS011;67480;48.920;12.880;2024-02-16T10:14:19;11.70;;;10.18;;
78205;SDS011;67480;48.920;12.880;2024-02-16T10:16:46;11.98;;;9.77;;
78205;SDS011;67480;48.920;12.880;2024-02-16T10:19:13;11.20;;;10.02;;
78205;SDS011;67480;48.920;12.880;2024-02-16T10:21:39;11.18;;;9.77;;
78205;SDS011;67480;48.920;12.880;2024-02-16T10:24:09;12.82;;;10.90;;
78205;SDS011;67480;48.920;12.880;2024-02-16T10:26:36;11.82;;;9.32;;
78205;SDS011;67480;48.920;12.880;2024-02-16T10:29:03;9.60;;;8.50;;
78205;SDS011;67480;48.920;12.880;2024-02-16T10:31:34;10.68;;;8.35;;
78205;SDS011;67480;48.920;12.880;2024-02-16T10:34:00;11.70;;;8.43;;
78205;SDS011;67480;48.920;12.880;2024-02-16T10:36:31;7.95;;;7.03;;
78205;SDS011;67480;48.920;12.880;2024-02-16T10:39:01;7.45;;;6.68;;
78205;SDS011;67480;48.920;12.880;2024-02-16T10:41:32;7.30;;;6.47;;
78205;SDS011;67480;48.920;12.880;2024-02-16T10:43:59;7.18;;;6.47;;
78205;SDS011;67480;48.920;12.880;2024-02-16T10:46:26;7.50;;;5.70;;
78205;SDS011;67480;48.920;12.880;2024-02-16T10:48:52;6.43;;;5.80;;
78205;SDS011;67480;48.920;12.880;2024-02-16T10:51:20;6.10;;;5.50;;
78205;SDS011;67480;48.920;12.880;2024-02-16T10:54:06;6.22;;;5.28;;
78205;SDS011;67480;48.920;12.880;2024-02-16T10:56:33;6.63;;;4.65;;
78205;SDS011;67480;48.920;12.880;2024-02-16T10:59:00;6.18;;;4.90;;
78205;SDS011;67480;48.920;12.880;2024-02-16T11:01:27;6.43;;;5.03;;
78205;SDS011;67480;48.920;12.880;2024-02-16T11:04:03;5.63;;;4.85;;
78205;SDS011;67480;48.920;12.880;2024-02-16T11:06:30;5.93;;;4.40;;
78205;SDS011;67480;48.920;12.880;2024-02-16T11:09:00;4.20;;;3.80;;
78205;SDS011;67480;48.920;12.880;2024-02-16T11:11:27;6.90;;;5.00;;
78205;SDS011;67480;48.920;12.880;2024-02-16T11:13:55;5.57;;;4.38;;
78205;SDS011;67480;48.920;12.880;2024-02-16T11:16:22;5.32;;;4.18;;
78205;SDS011;67480;48.920;12.880;2024-02-16T11:18:47;5.80;;;4.70;;
78205;SDS011;67480;48.920;12.880;2024-02-16T11:21:17;5.07;;;4.20;;
78205;SDS011;67480;48.920;12.880;2024-02-16T11:23:44;4.38;;;3.97;;
78205;SDS011;67480;48.920;12.880;2024-02-16T11:26:10;5.00;;;3.67;;
78205;SDS011;67480;48.920;12.880;2024-02-16T11:28:37;5.70;;;4.55;;
78205;SDS011;67480;48.920;12.880;2024-02-16T11:31:04;5.78;;;4.30;;
78205;SDS011;67480;48.920;12.880;2024-02-16T11:33:30;4.90;;;4.00;;
78205;SDS011;67480;48.920;12.880;2024-02-16T11:38:22;5.90;;;5.30;;
78205;SDS011;67480;48.920;12.880;2024-02-16T11:40:55;5.18;;;4.68;;
78205;SDS011;67480;48.920;12.880;2024-02-16T11:43:22;6.93;;;4.53;;
78205;SDS011;67480;48.920;12.880;2024-02-16T11:45:48;7.32;;;5.22;;
78205;SDS011;67480;48.920;12.880;2024-02-16T11:48:18;5.47;;;4.70;;
78205;SDS011;67480;48.920;12.880;2024-02-16T11:50:46;6.18;;;5.40;;
78205;SDS011;67480;48.920;12.880;2024-02-16T11:53:14;6.38;;;5.45;;
78205;SDS011;67480;48.920;12.880;2024-02-16T11:55:45;6.22;;;4.57;;
78205;SDS011;67480;48.920;12.880;2024-02-16T11:58:12;6.05;;;5.18;;
78205;SDS011;67480;48.920;12.880;2024-02-16T12:00:39;6.97;;;5.38;;
78205;SDS011;67480;48.920;12.880;2024-02-16T12:03:06;10.90;;;6.35;;
78205;SDS011;67480;48.920;12.880;2024-02-16T12:05:32;7.60;;;6.80;;
78205;SDS011;67480;48.920;12.880;2024-02-16T12:07:58;8.27;;;6.07;;
78205;SDS011;67480;48.920;12.880;2024-02-16T12:10:24;10.32;;;6.43;;
78205;SDS011;67480;48.920;12.880;2024-02-16T12:12:50;6.60;;;5.90;;
78205;SDS011;67480;48.920;12.880;2024-02-16T12:15:15;7.15;;;5.25;;
78205;SDS011;67480;48.920;12.880;2024-02-16T12:17:42;6.85;;;5.88;;
78205;SDS011;67480;48.920;12.880;2024-02-16T12:20:14;6.38;;;5.30;;
78205;SDS011;67480;48.920;12.880;2024-02-16T12:22:59;6.13;;;4.90;;
78205;SDS011;67480;48.920;12.880;2024-02-16T12:25:35;6.07;;;5.45;;
78205;SDS011;67480;48.920;12.880;2024-02-16T12:28:00;5.43;;;4.53;;
78205;SDS011;67480;48.920;12.880;2024-02-16T12:30:25;5.60;;;5.10;;
78205;SDS011;67480;48.920;12.880;2024-02-16T12:32:51;5.72;;;5.13;;
78205;SDS011;67480;48.920;12.880;2024-02-16T12:35:18;6.32;;;5.07;;
78205;SDS011;67480;48.920;12.880;2024-02-16T12:37:43;6.18;;;5.30;;
78205;SDS011;67480;48.920;12.880;2024-02-16T12:40:10;6.30;;;5.03;;
78205;SDS011;67480;48.920;12.880;2024-02-16T12:42:36;5.65;;;5.03;;
78205;SDS011;67480;48.920;12.880;2024-02-16T12:45:01;5.82;;;4.88;;
78205;SDS011;67480;48.920;12.880;2024-02-16T12:47:27;6.28;;;5.18;;
78205;SDS011;67480;48.920;12.880;2024-02-16T12:49:52;6.22;;;5.38;;
78205;SDS011;67480;48.920;12.880;2024-02-16T12:52:22;6.20;;;5.55;;
78205;SDS011;67480;48.920;12.880;2024-02-16T12:54:48;7.93;;;6.00;;
78205;SDS011;67480;48.920;12.880;2024-02-16T12:57:13;6.93;;;6.03;;
78205;SDS011;67480;48.920;12.880;2024-02-16T12:59:38;8.15;;;5.95;;
78205;SDS011;67480;48.920;12.880;2024-02-16T13:02:04;7.50;;;6.70;;
78205;SDS011;67480;48.920;12.880;2024-02-16T13:04:29;6.75;;;6.05;;
78205;SDS011;67480;48.920;12.880;2024-02-16T13:06:57;9.52;;;6.57;;
78205;SDS011;67480;48.920;12.880;2024-02-16T13:09:23;8.38;;;6.97;;
78205;SDS011;67480;48.920;12.880;2024-02-16T13:11:48;10.27;;;8.25;;
78205;SDS011;67480;48.920;12.880;2024-02-16T13:14:19;10.70;;;9.48;;
78205;SDS011;67480;48.920;12.880;2024-02-16T13:16:45;12.38;;;9.27;;
78205;SDS011;67480;48.920;12.880;2024-02-16T13:19:10;11.15;;;8.98;;
78205;SDS011;67480;48.920;12.880;2024-02-16T13:21:36;11.98;;;10.02;;
78205;SDS011;67480;48.920;12.880;2024-02-16T13:24:02;10.65;;;8.85;;
78205;SDS011;67480;48.920;12.880;2024-02-16T13:26:27;10.90;;;9.27;;
78205;SDS011;67480;48.920;12.880;2024-02-16T13:28:53;10.90;;;9.52;;
78205;SDS011;67480;48.920;12.880;2024-02-16T13:31:20;12.77;;;8.98;;
78205;SDS011;67480;48.920;12.880;2024-02-16T13:33:46;12.98;;;9.15;;
78205;SDS011;67480;48.920;12.880;2024-02-16T13:36:11;12.77;;;8.70;;
78205;SDS011;67480;48.920;12.880;2024-02-16T13:38:36;13.00;;;8.70;;
78205;SDS011;67480;48.920;12.880;2024-02-16T13:41:02;10.30;;;8.57;;
78205;SDS011;67480;48.920;12.880;2024-02-16T13:43:30;9.93;;;8.10;;
78205;SDS011;67480;48.920;12.880;2024-02-16T13:45:55;9.38;;;7.70;;
78205;SDS011;67480;48.920;12.880;2024-02-16T13:48:23;10.48;;;7.90;;
78205;SDS011;67480;48.920;12.880;2024-02-16T13:50:49;8.70;;;7.45;;
78205;SDS011;67480;48.920;12.880;2024-02-16T13:53:15;9.15;;;7.35;;
78205;SDS011;67480;48.920;12.880;2024-02-16T13:55:41;8.63;;;7.43;;
78205;SDS011;67480;48.920;12.880;2024-02-16T13:58:09;9.35;;;7.53;;
78205;SDS011;67480;48.920;12.880;2024-02-16T14:00:35;8.98;;;7.07;;
78205;SDS011;67480;48.920;12.880;2024-02-16T14:03:00;8.88;;;7.72;;
78205;SDS011;67480;48.920;12.880;2024-02-16T14:05:26;8.77;;;7.38;;
78205;SDS011;67480;48.920;12.880;2024-02-16T14:07:51;9.52;;;6.90;;
78205;SDS011;67480;48.920;12.880;2024-02-16T14:10:17;7.95;;;6.88;;
78205;SDS011;67480;48.920;12.880;2024-02-16T14:12:44;8.40;;;7.50;;
78205;SDS011;67480;48.920;12.880;2024-02-16T14:15:11;8.70;;;6.97;;
78205;SDS011;67480;48.920;12.880;2024-02-16T14:17:40;7.82;;;6.97;;
78205;SDS011;67480;48.920;12.880;2024-02-16T14:20:09;9.23;;;7.55;;
78205;SDS011;67480;48.920;12.880;2024-02-16T14:22:35;8.88;;;7.57;;
78205;SDS011;67480;48.920;12.880;2024-02-16T14:25:00;12.27;;;8.00;;
78205;SDS011;67480;48.920;12.880;2024-02-16T14:27:25;8.35;;;7.45;;
78205;SDS011;67480;48.920;12.880;2024-02-16T14:29:51;8.73;;;7.72;;
78205;SDS011;67480;48.920;12.880;2024-02-16T14:32:16;12.00;;;9.50;;
78205;SDS011;67480;48.920;12.880;2024-02-16T14:34:42;15.45;;;11.35;;